sensor_id;sensor_type;location;lat;lon;timestamp;temperature;humidity
28837;DHT22;50669;50.982;11.022;2023-07-13T00:01:49;27.30;74.40
28837;DHT22;50669;50.982;11.022;2023-07-13T00:04:22;27.30;74.50
28837;DHT22;50669;50.982;11.022;2023-07-13T00:06:52;27.30;74.90
28837;DHT22;50669;50.982;11.022;2023-07-13T00:09:24;27.30;75.50
28837;DHT22;50669;50.982;11.022;2023-07-13T00:11:55;27.40;75.40
28837;DHT22;50669;50.982;11.022;2023-07-13T00:14:21;27.40;76.00
28837;DHT22;50669;50.982;11.022;2023-07-13T00:16:47;27.40;76.30
28837;DHT22;50669;50.982;11.022;2023-07-13T00:19:15;27.40;76.40
28837;DHT22;50669;50.982;11.022;2023-07-13T00:21:42;27.40;76.50
28837;DHT22;50669;50.982;11.022;2023-07-13T00:24:11;27.40;76.00
28837;DHT22;50669;50.982;11.022;2023-07-13T00:26:41;27.40;76.10
28837;DHT22;50669;50.982;11.022;2023-07-13T00:29:11;27.40;76.40
28837;DHT22;50669;50.982;11.022;2023-07-13T00:31:37;27.40;76.40
28837;DHT22;50669;50.982;11.022;2023-07-13T00:34:05;27.40;75.80
28837;DHT22;50669;50.982;11.022;2023-07-13T00:36:31;27.40;76.00
28837;DHT22;50669;50.982;11.022;2023-07-13T00:39:00;27.40;76.40
28837;DHT22;50669;50.982;11.022;2023-07-13T00:41:25;27.40;75.60
28837;DHT22;50669;50.982;11.022;2023-07-13T00:43:53;27.40;75.40
28837;DHT22;50669;50.982;11.022;2023-07-13T00:46:25;27.40;75.70
28837;DHT22;50669;50.982;11.022;2023-07-13T00:48:51;27.40;76.30
28837;DHT22;50669;50.982;11.022;2023-07-13T00:51:25;27.40;76.50
28837;DHT22;50669;50.982;11.022;2023-07-13T00:53:53;27.40;76.70
28837;DHT22;50669;50.982;11.022;2023-07-13T00:56:19;27.40;77.00
28837;DHT22;50669;50.982;11.022;2023-07-13T00:58:45;27.40;76.70
28837;DHT22;50669;50.982;11.022;2023-07-13T01:01:16;27.40;76.90
28837;DHT22;50669;50.982;11.022;2023-07-13T01:03:44;27.40;77.00
28837;DHT22;50669;50.982;11.022;2023-07-13T01:06:10;27.40;76.30
28837;DHT22;50669;50.982;11.022;2023-07-13T01:08:35;27.40;76.20
28837;DHT22;50669;50.982;11.022;2023-07-13T01:11:01;27.40;76.00
28837;DHT22;50669;50.982;11.022;2023-07-13T01:13:29;27.40;76.20
28837;DHT22;50669;50.982;11.022;2023-07-13T01:16:04;27.40;76.00
28837;DHT22;50669;50.982;11.022;2023-07-13T01:18:31;27.40;76.10
28837;DHT22;50669;50.982;11.022;2023-07-13T01:20:58;27.40;76.40
28837;DHT22;50669;50.982;11.022;2023-07-13T01:23:26;27.40;76.50
28837;DHT22;50669;50.982;11.022;2023-07-13T01:25:55;27.40;76.70
28837;DHT22;50669;50.982;11.022;2023-07-13T01:28:25;27.40;77.20
28837;DHT22;50669;50.982;11.022;2023-07-13T01:30:55;27.40;77.40
28837;DHT22;50669;50.982;11.022;2023-07-13T01:33:21;27.40;77.70
28837;DHT22;50669;50.982;11.022;2023-07-13T01:35:47;27.40;78.20
28837;DHT22;50669;50.982;11.022;2023-07-13T01:38:19;27.40;77.70
28837;DHT22;50669;50.982;11.022;2023-07-13T01:40:48;27.40;77.60
28837;DHT22;50669;50.982;11.022;2023-07-13T01:43:17;27.40;77.70
28837;DHT22;50669;50.982;11.022;2023-07-13T01:45:42;27.40;77.70
28837;DHT22;50669;50.982;11.022;2023-07-13T01:48:14;27.40;77.80
28837;DHT22;50669;50.982;11.022;2023-07-13T01:50:43;27.40;77.90
28837;DHT22;50669;50.982;11.022;2023-07-13T01:53:09;27.40;77.80
28837;DHT22;50669;50.982;11.022;2023-07-13T01:55:38;27.40;77.70
28837;DHT22;50669;50.982;11.022;2023-07-13T01:58:04;27.40;77.50
28837;DHT22;50669;50.982;11.022;2023-07-13T02:00:30;27.40;77.70
28837;DHT22;50669;50.982;11.022;2023-07-13T02:02:56;27.40;78.00
28837;DHT22;50669;50.982;11.022;2023-07-13T02:05:22;27.40;78.90
28837;DHT22;50669;50.982;11.022;2023-07-13T02:07:48;27.40;78.60
28837;DHT22;50669;50.982;11.022;2023-07-13T02:10:14;27.40;77.50
28837;DHT22;50669;50.982;11.022;2023-07-13T02:12:42;27.40;78.40
28837;DHT22;50669;50.982;11.022;2023-07-13T02:15:09;27.40;78.60
28837;DHT22;50669;50.982;11.022;2023-07-13T02:17:35;27.40;78.00
28837;DHT22;50669;50.982;11.022;2023-07-13T02:20:02;27.40;77.50
28837;DHT22;50669;50.982;11.022;2023-07-13T02:22:28;27.40;77.90
28837;DHT22;50669;50.982;11.022;2023-07-13T02:24:54;27.40;78.70
28837;DHT22;50669;50.982;11.022;2023-07-13T02:27:20;27.40;79.90
28837;DHT22;50669;50.982;11.022;2023-07-13T02:29:45;27.40;79.20
28837;DHT22;50669;50.982;11.022;2023-07-13T02:32:11;27.40;79.90
28837;DHT22;50669;50.982;11.022;2023-07-13T02:34:37;27.40;79.40
28837;DHT22;50669;50.982;11.022;2023-07-13T02:37:05;27.40;80.00
28837;DHT22;50669;50.982;11.022;2023-07-13T02:39:33;27.40;80.10
28837;DHT22;50669;50.982;11.022;2023-07-13T02:41:59;27.40;79.80
28837;DHT22;50669;50.982;11.022;2023-07-13T02:44:31;27.40;79.40
28837;DHT22;50669;50.982;11.022;2023-07-13T02:47:00;27.40;79.10
28837;DHT22;50669;50.982;11.022;2023-07-13T02:49:25;27.40;79.40
28837;DHT22;50669;50.982;11.022;2023-07-13T02:51:55;27.40;78.80
28837;DHT22;50669;50.982;11.022;2023-07-13T02:54:21;27.40;79.00
28837;DHT22;50669;50.982;11.022;2023-07-13T02:56:52;27.40;78.80
28837;DHT22;50669;50.982;11.022;2023-07-13T02:59:22;27.40;79.10
28837;DHT22;50669;50.982;11.022;2023-07-13T03:01:47;27.40;79.60
28837;DHT22;50669;50.982;11.022;2023-07-13T03:04:15;27.40;79.80
28837;DHT22;50669;50.982;11.022;2023-07-13T03:06:45;27.40;80.30
28837;DHT22;50669;50.982;11.022;2023-07-13T03:09:10;27.40;80.10
28837;DHT22;50669;50.982;11.022;2023-07-13T03:11:38;27.40;80.60
28837;DHT22;50669;50.982;11.022;2023-07-13T03:14:04;27.40;80.30
28837;DHT22;50669;50.982;11.022;2023-07-13T03:16:29;27.40;80.30
28837;DHT22;50669;50.982;11.022;2023-07-13T03:18:55;27.40;80.30
28837;DHT22;50669;50.982;11.022;2023-07-13T03:21:21;27.40;80.30
28837;DHT22;50669;50.982;11.022;2023-07-13T03:23:47;27.40;80.30
28837;DHT22;50669;50.982;11.022;2023-07-13T03:26:16;27.40;80.40
28837;DHT22;50669;50.982;11.022;2023-07-13T03:28:45;27.40;80.70
28837;DHT22;50669;50.982;11.022;2023-07-13T03:31:19;27.40;80.20
28837;DHT22;50669;50.982;11.022;2023-07-13T03:33:45;27.40;81.30
28837;DHT22;50669;50.982;11.022;2023-07-13T03:36:20;27.40;80.90
28837;DHT22;50669;50.982;11.022;2023-07-13T03:38:53;27.40;80.50
28837;DHT22;50669;50.982;11.022;2023-07-13T03:41:19;27.40;80.50
28837;DHT22;50669;50.982;11.022;2023-07-13T03:43:45;27.40;80.10
28837;DHT22;50669;50.982;11.022;2023-07-13T03:46:10;27.40;80.00
28837;DHT22;50669;50.982;11.022;2023-07-13T03:48:36;27.40;80.00
28837;DHT22;50669;50.982;11.022;2023-07-13T03:51:02;27.40;80.00
28837;DHT22;50669;50.982;11.022;2023-07-13T03:53:28;27.40;79.50
28837;DHT22;50669;50.982;11.022;2023-07-13T03:55:54;27.40;80.00
28837;DHT22;50669;50.982;11.022;2023-07-13T03:58:32;27.40;80.00
28837;DHT22;50669;50.982;11.022;2023-07-13T04:01:01;27.40;80.40
28837;DHT22;50669;50.982;11.022;2023-07-13T04:03:28;27.40;80.30
28837;DHT22;50669;50.982;11.022;2023-07-13T04:05:55;27.40;80.20
28837;DHT22;50669;50.982;11.022;2023-07-13T04:08:29;27.40;80.00
28837;DHT22;50669;50.982;11.022;2023-07-13T04:10:59;27.40;79.80
28837;DHT22;50669;50.982;11.022;2023-07-13T04:13:25;27.40;79.20
28837;DHT22;50669;50.982;11.022;2023-07-13T04:15:51;27.40;79.40
28837;DHT22;50669;50.982;11.022;2023-07-13T04:18:17;27.40;79.10
28837;DHT22;50669;50.982;11.022;2023-07-13T04:20:43;27.40;78.80
28837;DHT22;50669;50.982;11.022;2023-07-13T04:23:11;27.40;78.60
28837;DHT22;50669;50.982;11.022;2023-07-13T04:25:39;27.40;79.20
28837;DHT22;50669;50.982;11.022;2023-07-13T04:28:05;27.40;79.70
28837;DHT22;50669;50.982;11.022;2023-07-13T04:30:35;27.40;80.10
28837;DHT22;50669;50.982;11.022;2023-07-13T04:33:01;27.40;79.80
28837;DHT22;50669;50.982;11.022;2023-07-13T04:35:29;27.40;79.10
28837;DHT22;50669;50.982;11.022;2023-07-13T04:37:57;27.40;78.80
28837;DHT22;50669;50.982;11.022;2023-07-13T04:40:23;27.40;78.30
28837;DHT22;50669;50.982;11.022;2023-07-13T04:42:54;27.30;75.30
28837;DHT22;50669;50.982;11.022;2023-07-13T04:45:22;27.00;73.80
28837;DHT22;50669;50.982;11.022;2023-07-13T04:47:49;26.80;73.90
28837;DHT22;50669;50.982;11.022;2023-07-13T04:50:17;26.60;74.90
28837;DHT22;50669;50.982;11.022;2023-07-13T04:52:49;26.50;74.30
28837;DHT22;50669;50.982;11.022;2023-07-13T04:55:18;26.40;74.50
28837;DHT22;50669;50.982;11.022;2023-07-13T04:57:47;26.30;74.40
28837;DHT22;50669;50.982;11.022;2023-07-13T05:00:13;26.30;74.10
28837;DHT22;50669;50.982;11.022;2023-07-13T05:02:44;26.20;74.10
28837;DHT22;50669;50.982;11.022;2023-07-13T05:05:15;26.20;74.60
28837;DHT22;50669;50.982;11.022;2023-07-13T05:07:41;26.20;74.40
28837;DHT22;50669;50.982;11.022;2023-07-13T05:10:07;26.20;75.10
28837;DHT22;50669;50.982;11.022;2023-07-13T05:12:33;26.20;74.60
28837;DHT22;50669;50.982;11.022;2023-07-13T05:15:01;26.20;74.90
28837;DHT22;50669;50.982;11.022;2023-07-13T05:17:27;26.20;74.70
28837;DHT22;50669;50.982;11.022;2023-07-13T05:19:53;26.20;74.70
28837;DHT22;50669;50.982;11.022;2023-07-13T05:22:18;26.00;73.70
28837;DHT22;50669;50.982;11.022;2023-07-13T05:24:48;26.00;74.80
28837;DHT22;50669;50.982;11.022;2023-07-13T05:27:16;25.90;74.90
28837;DHT22;50669;50.982;11.022;2023-07-13T05:29:42;25.90;76.20
28837;DHT22;50669;50.982;11.022;2023-07-13T05:32:08;26.00;76.90
28837;DHT22;50669;50.982;11.022;2023-07-13T05:34:36;26.20;77.20
28837;DHT22;50669;50.982;11.022;2023-07-13T05:37:04;26.40;77.50
28837;DHT22;50669;50.982;11.022;2023-07-13T05:39:35;26.50;77.40
28837;DHT22;50669;50.982;11.022;2023-07-13T05:42:04;26.70;77.50
28837;DHT22;50669;50.982;11.022;2023-07-13T05:44:30;26.70;77.40
28837;DHT22;50669;50.982;11.022;2023-07-13T05:46:55;26.80;77.40
28837;DHT22;50669;50.982;11.022;2023-07-13T05:49:22;26.90;77.50
28837;DHT22;50669;50.982;11.022;2023-07-13T05:51:48;26.90;77.40
28837;DHT22;50669;50.982;11.022;2023-07-13T05:54:13;27.00;77.40
28837;DHT22;50669;50.982;11.022;2023-07-13T05:56:41;27.00;77.40
28837;DHT22;50669;50.982;11.022;2023-07-13T05:59:08;27.00;77.40
28837;DHT22;50669;50.982;11.022;2023-07-13T06:01:33;27.10;78.20
28837;DHT22;50669;50.982;11.022;2023-07-13T06:04:01;27.10;77.50
28837;DHT22;50669;50.982;11.022;2023-07-13T06:06:27;27.10;77.40
28837;DHT22;50669;50.982;11.022;2023-07-13T06:08:53;27.20;77.50
28837;DHT22;50669;50.982;11.022;2023-07-13T06:11:22;27.20;77.50
28837;DHT22;50669;50.982;11.022;2023-07-13T06:13:48;27.20;77.50
28837;DHT22;50669;50.982;11.022;2023-07-13T06:16:14;27.20;77.50
28837;DHT22;50669;50.982;11.022;2023-07-13T06:18:40;27.30;77.60
28837;DHT22;50669;50.982;11.022;2023-07-13T06:21:10;27.20;77.50
28837;DHT22;50669;50.982;11.022;2023-07-13T06:23:37;27.30;77.60
28837;DHT22;50669;50.982;11.022;2023-07-13T06:26:03;27.30;77.60
28837;DHT22;50669;50.982;11.022;2023-07-13T06:28:29;27.30;77.70
28837;DHT22;50669;50.982;11.022;2023-07-13T06:31:02;27.30;77.60
28837;DHT22;50669;50.982;11.022;2023-07-13T06:33:32;27.30;77.70
28837;DHT22;50669;50.982;11.022;2023-07-13T06:36:02;27.30;77.70
28837;DHT22;50669;50.982;11.022;2023-07-13T06:38:28;27.30;77.60
28837;DHT22;50669;50.982;11.022;2023-07-13T06:40:53;27.30;77.70
28837;DHT22;50669;50.982;11.022;2023-07-13T06:43:22;27.40;77.70
28837;DHT22;50669;50.982;11.022;2023-07-13T06:45:48;27.40;77.80
28837;DHT22;50669;50.982;11.022;2023-07-13T06:48:19;27.40;77.80
28837;DHT22;50669;50.982;11.022;2023-07-13T06:50:46;27.40;77.80
28837;DHT22;50669;50.982;11.022;2023-07-13T06:53:12;27.40;77.80
28837;DHT22;50669;50.982;11.022;2023-07-13T06:55:43;27.40;77.80
28837;DHT22;50669;50.982;11.022;2023-07-13T06:58:12;27.40;77.90
28837;DHT22;50669;50.982;11.022;2023-07-13T07:00:40;27.40;77.80
28837;DHT22;50669;50.982;11.022;2023-07-13T07:03:06;27.40;77.80
28837;DHT22;50669;50.982;11.022;2023-07-13T07:05:32;27.40;77.90
28837;DHT22;50669;50.982;11.022;2023-07-13T07:07:59;27.40;77.90
28837;DHT22;50669;50.982;11.022;2023-07-13T07:10:25;27.40;77.90
28837;DHT22;50669;50.982;11.022;2023-07-13T07:12:53;27.40;77.70
28837;DHT22;50669;50.982;11.022;2023-07-13T07:15:19;27.40;77.80
28837;DHT22;50669;50.982;11.022;2023-07-13T07:17:45;27.40;77.70
28837;DHT22;50669;50.982;11.022;2023-07-13T07:20:13;27.40;77.80
28837;DHT22;50669;50.982;11.022;2023-07-13T07:22:41;27.50;77.90
28837;DHT22;50669;50.982;11.022;2023-07-13T07:25:07;27.50;77.90
28837;DHT22;50669;50.982;11.022;2023-07-13T07:27:33;27.40;77.90
28837;DHT22;50669;50.982;11.022;2023-07-13T07:30:01;27.50;78.00
28837;DHT22;50669;50.982;11.022;2023-07-13T07:32:30;27.50;78.00
28837;DHT22;50669;50.982;11.022;2023-07-13T07:34:57;27.40;77.90
28837;DHT22;50669;50.982;11.022;2023-07-13T07:37:23;27.50;77.90
28837;DHT22;50669;50.982;11.022;2023-07-13T07:39:48;27.50;78.00
28837;DHT22;50669;50.982;11.022;2023-07-13T07:42:19;27.50;78.00
28837;DHT22;50669;50.982;11.022;2023-07-13T07:44:45;27.50;78.10
28837;DHT22;50669;50.982;11.022;2023-07-13T07:47:10;27.50;78.00
28837;DHT22;50669;50.982;11.022;2023-07-13T07:49:38;27.50;78.00
28837;DHT22;50669;50.982;11.022;2023-07-13T07:52:05;27.50;78.00
28837;DHT22;50669;50.982;11.022;2023-07-13T07:54:30;27.50;78.00
28837;DHT22;50669;50.982;11.022;2023-07-13T07:56:56;27.50;78.00
28837;DHT22;50669;50.982;11.022;2023-07-13T07:59:24;27.50;78.10
28837;DHT22;50669;50.982;11.022;2023-07-13T08:01:52;27.50;78.00
28837;DHT22;50669;50.982;11.022;2023-07-13T08:04:17;27.50;78.00
28837;DHT22;50669;50.982;11.022;2023-07-13T08:06:45;27.50;78.00
28837;DHT22;50669;50.982;11.022;2023-07-13T08:09:14;27.50;78.10
28837;DHT22;50669;50.982;11.022;2023-07-13T08:11:41;27.50;78.00
28837;DHT22;50669;50.982;11.022;2023-07-13T08:14:09;27.50;77.90
28837;DHT22;50669;50.982;11.022;2023-07-13T08:16:35;27.60;78.10
28837;DHT22;50669;50.982;11.022;2023-07-13T08:19:03;27.50;78.00
28837;DHT22;50669;50.982;11.022;2023-07-13T08:21:29;27.60;78.10
28837;DHT22;50669;50.982;11.022;2023-07-13T08:23:56;27.60;78.10
28837;DHT22;50669;50.982;11.022;2023-07-13T08:26:23;27.60;78.10
28837;DHT22;50669;50.982;11.022;2023-07-13T08:28:49;27.60;78.10
28837;DHT22;50669;50.982;11.022;2023-07-13T08:31:19;27.60;78.00
28837;DHT22;50669;50.982;11.022;2023-07-13T08:33:47;27.60;78.00
28837;DHT22;50669;50.982;11.022;2023-07-13T08:36:13;27.60;78.00
28837;DHT22;50669;50.982;11.022;2023-07-13T08:38:38;27.60;78.00
28837;DHT22;50669;50.982;11.022;2023-07-13T08:41:15;27.60;78.00
28837;DHT22;50669;50.982;11.022;2023-07-13T08:43:44;27.60;78.00
28837;DHT22;50669;50.982;11.022;2023-07-13T08:48:46;27.60;78.00
28837;DHT22;50669;50.982;11.022;2023-07-13T08:51:31;27.70;78.10
28837;DHT22;50669;50.982;11.022;2023-07-13T08:54:01;27.60;78.00
28837;DHT22;50669;50.982;11.022;2023-07-13T08:56:29;27.60;78.00
28837;DHT22;50669;50.982;11.022;2023-07-13T08:59:00;27.70;78.10
28837;DHT22;50669;50.982;11.022;2023-07-13T09:04:35;27.70;78.00
28837;DHT22;50669;50.982;11.022;2023-07-13T09:07:14;27.70;78.00
28837;DHT22;50669;50.982;11.022;2023-07-13T09:10:05;27.70;78.00
28837;DHT22;50669;50.982;11.022;2023-07-13T09:18:02;27.70;78.00
28837;DHT22;50669;50.982;11.022;2023-07-13T09:20:31;27.70;78.00
28837;DHT22;50669;50.982;11.022;2023-07-13T09:23:01;27.70;78.00
28837;DHT22;50669;50.982;11.022;2023-07-13T09:25:37;27.70;78.10
28837;DHT22;50669;50.982;11.022;2023-07-13T09:28:15;27.70;78.10
28837;DHT22;50669;50.982;11.022;2023-07-13T09:33:21;27.70;78.00
28837;DHT22;50669;50.982;11.022;2023-07-13T09:35:52;27.70;78.00
28837;DHT22;50669;50.982;11.022;2023-07-13T09:38:19;27.70;78.10
28837;DHT22;50669;50.982;11.022;2023-07-13T09:40:59;27.70;78.00
28837;DHT22;50669;50.982;11.022;2023-07-13T09:43:28;27.70;78.00
28837;DHT22;50669;50.982;11.022;2023-07-13T09:45:57;27.70;78.00
28837;DHT22;50669;50.982;11.022;2023-07-13T09:48:23;27.70;78.00
28837;DHT22;50669;50.982;11.022;2023-07-13T09:50:54;27.70;78.00
28837;DHT22;50669;50.982;11.022;2023-07-13T09:53:21;27.70;78.00
28837;DHT22;50669;50.982;11.022;2023-07-13T09:55:49;27.70;78.00
28837;DHT22;50669;50.982;11.022;2023-07-13T09:58:21;27.80;78.10
28837;DHT22;50669;50.982;11.022;2023-07-13T10:00:59;27.80;78.00
28837;DHT22;50669;50.982;11.022;2023-07-13T10:03:35;27.80;78.00
28837;DHT22;50669;50.982;11.022;2023-07-13T10:06:17;27.80;78.00
28837;DHT22;50669;50.982;11.022;2023-07-13T10:08:48;27.80;78.00
28837;DHT22;50669;50.982;11.022;2023-07-13T10:16:27;27.80;78.00
28837;DHT22;50669;50.982;11.022;2023-07-13T10:18:59;27.80;78.00
28837;DHT22;50669;50.982;11.022;2023-07-13T10:21:30;27.80;78.00
28837;DHT22;50669;50.982;11.022;2023-07-13T10:26:50;27.80;78.00
28837;DHT22;50669;50.982;11.022;2023-07-13T10:29:17;27.80;77.90
28837;DHT22;50669;50.982;11.022;2023-07-13T10:31:46;27.80;78.00
28837;DHT22;50669;50.982;11.022;2023-07-13T10:34:13;27.80;78.00
28837;DHT22;50669;50.982;11.022;2023-07-13T10:36:40;27.80;78.00
28837;DHT22;50669;50.982;11.022;2023-07-13T10:39:20;27.80;78.00
28837;DHT22;50669;50.982;11.022;2023-07-13T10:42:03;27.80;78.00
28837;DHT22;50669;50.982;11.022;2023-07-13T10:44:32;27.80;78.00
28837;DHT22;50669;50.982;11.022;2023-07-13T10:47:05;27.80;77.90
28837;DHT22;50669;50.982;11.022;2023-07-13T10:49:33;27.80;77.90
28837;DHT22;50669;50.982;11.022;2023-07-13T10:52:03;27.80;77.90
28837;DHT22;50669;50.982;11.022;2023-07-13T10:57:19;27.80;78.00
28837;DHT22;50669;50.982;11.022;2023-07-13T11:00:15;27.80;77.90
28837;DHT22;50669;50.982;11.022;2023-07-13T11:02:41;27.80;78.00
28837;DHT22;50669;50.982;11.022;2023-07-13T11:05:40;27.80;77.90
28837;DHT22;50669;50.982;11.022;2023-07-13T11:08:32;27.80;77.50
28837;DHT22;50669;50.982;11.022;2023-07-13T11:10:59;27.80;77.90
28837;DHT22;50669;50.982;11.022;2023-07-13T11:18:48;27.80;77.90
28837;DHT22;50669;50.982;11.022;2023-07-13T11:21:26;27.90;77.90
28837;DHT22;50669;50.982;11.022;2023-07-13T11:24:16;27.90;77.90
28837;DHT22;50669;50.982;11.022;2023-07-13T11:26:52;27.90;77.90
28837;DHT22;50669;50.982;11.022;2023-07-13T11:31:55;27.90;78.60
28837;DHT22;50669;50.982;11.022;2023-07-13T11:34:31;27.90;78.70
28837;DHT22;50669;50.982;11.022;2023-07-13T11:37:08;27.90;77.90
28837;DHT22;50669;50.982;11.022;2023-07-13T11:39:38;27.90;77.90
28837;DHT22;50669;50.982;11.022;2023-07-13T11:42:12;27.90;77.90
28837;DHT22;50669;50.982;11.022;2023-07-13T11:44:46;27.90;77.90
28837;DHT22;50669;50.982;11.022;2023-07-13T11:47:22;27.90;77.80
28837;DHT22;50669;50.982;11.022;2023-07-13T11:49:57;27.90;77.80
28837;DHT22;50669;50.982;11.022;2023-07-13T11:52:32;27.90;77.80
28837;DHT22;50669;50.982;11.022;2023-07-13T11:55:16;27.90;77.70
28837;DHT22;50669;50.982;11.022;2023-07-13T11:57:49;27.90;77.80
28837;DHT22;50669;50.982;11.022;2023-07-13T12:00:22;27.90;77.80
28837;DHT22;50669;50.982;11.022;2023-07-13T12:02:50;27.90;77.70
28837;DHT22;50669;50.982;11.022;2023-07-13T12:05:20;27.90;77.70
28837;DHT22;50669;50.982;11.022;2023-07-13T12:07:46;27.90;77.70
28837;DHT22;50669;50.982;11.022;2023-07-13T12:10:29;27.90;77.70
28837;DHT22;50669;50.982;11.022;2023-07-13T12:13:08;27.90;77.70
28837;DHT22;50669;50.982;11.022;2023-07-13T12:15:40;27.90;77.70
28837;DHT22;50669;50.982;11.022;2023-07-13T12:18:15;27.90;77.70
28837;DHT22;50669;50.982;11.022;2023-07-13T12:20:44;27.90;77.70
28837;DHT22;50669;50.982;11.022;2023-07-13T12:23:31;27.90;77.70
28837;DHT22;50669;50.982;11.022;2023-07-13T12:25:59;27.90;77.70
28837;DHT22;50669;50.982;11.022;2023-07-13T12:28:59;28.00;77.80
28837;DHT22;50669;50.982;11.022;2023-07-13T12:31:35;28.00;77.80
28837;DHT22;50669;50.982;11.022;2023-07-13T12:34:07;28.00;77.80
28837;DHT22;50669;50.982;11.022;2023-07-13T12:36:35;28.00;77.70
28837;DHT22;50669;50.982;11.022;2023-07-13T12:39:14;28.00;77.70
28837;DHT22;50669;50.982;11.022;2023-07-13T12:41:44;28.00;77.70
28837;DHT22;50669;50.982;11.022;2023-07-13T12:44:15;28.00;77.70
28837;DHT22;50669;50.982;11.022;2023-07-13T12:47:06;28.00;77.60
28837;DHT22;50669;50.982;11.022;2023-07-13T12:49:41;28.00;77.50
28837;DHT22;50669;50.982;11.022;2023-07-13T12:52:16;28.10;77.60
28837;DHT22;50669;50.982;11.022;2023-07-13T12:54:53;28.10;77.50
28837;DHT22;50669;50.982;11.022;2023-07-13T12:57:22;28.10;77.50
28837;DHT22;50669;50.982;11.022;2023-07-13T12:59:54;28.10;77.50
28837;DHT22;50669;50.982;11.022;2023-07-13T13:02:32;28.10;77.50
28837;DHT22;50669;50.982;11.022;2023-07-13T13:05:01;28.10;77.40
28837;DHT22;50669;50.982;11.022;2023-07-13T13:07:32;28.10;77.40
28837;DHT22;50669;50.982;11.022;2023-07-13T13:09:57;28.10;77.50
28837;DHT22;50669;50.982;11.022;2023-07-13T13:12:24;28.10;77.40
28837;DHT22;50669;50.982;11.022;2023-07-13T13:14:52;28.10;77.50
28837;DHT22;50669;50.982;11.022;2023-07-13T13:17:29;28.10;77.40
28837;DHT22;50669;50.982;11.022;2023-07-13T13:19:56;28.10;77.40
28837;DHT22;50669;50.982;11.022;2023-07-13T13:22:26;28.10;77.40
28837;DHT22;50669;50.982;11.022;2023-07-13T13:24:54;28.10;77.40
28837;DHT22;50669;50.982;11.022;2023-07-13T13:27:26;28.20;77.50
28837;DHT22;50669;50.982;11.022;2023-07-13T13:29:57;28.20;77.40
28837;DHT22;50669;50.982;11.022;2023-07-13T13:32:22;28.20;77.30
28837;DHT22;50669;50.982;11.022;2023-07-13T13:34:51;28.20;77.20
28837;DHT22;50669;50.982;11.022;2023-07-13T13:39:47;28.20;77.20
28837;DHT22;50669;50.982;11.022;2023-07-13T13:42:14;28.20;77.30
28837;DHT22;50669;50.982;11.022;2023-07-13T13:44:42;28.30;77.30
28837;DHT22;50669;50.982;11.022;2023-07-13T13:47:33;28.30;77.10
28837;DHT22;50669;50.982;11.022;2023-07-13T13:50:00;28.40;77.10
28837;DHT22;50669;50.982;11.022;2023-07-13T13:52:26;28.40;76.90
28837;DHT22;50669;50.982;11.022;2023-07-13T13:54:54;28.40;76.80
28837;DHT22;50669;50.982;11.022;2023-07-13T13:57:23;28.40;76.90
28837;DHT22;50669;50.982;11.022;2023-07-13T13:59:50;28.40;77.00
28837;DHT22;50669;50.982;11.022;2023-07-13T14:02:26;28.40;77.00
28837;DHT22;50669;50.982;11.022;2023-07-13T14:04:58;28.40;77.00
28837;DHT22;50669;50.982;11.022;2023-07-13T14:07:25;28.40;77.10
28837;DHT22;50669;50.982;11.022;2023-07-13T14:09:58;28.30;77.00
28837;DHT22;50669;50.982;11.022;2023-07-13T14:12:26;28.30;77.00
28837;DHT22;50669;50.982;11.022;2023-07-13T14:14:56;28.30;76.90
28837;DHT22;50669;50.982;11.022;2023-07-13T14:17:25;28.30;77.00
28837;DHT22;50669;50.982;11.022;2023-07-13T14:19:55;28.30;77.00
28837;DHT22;50669;50.982;11.022;2023-07-13T14:22:26;28.30;77.10
28837;DHT22;50669;50.982;11.022;2023-07-13T14:24:53;28.30;77.00
28837;DHT22;50669;50.982;11.022;2023-07-13T14:27:21;28.30;77.70
28837;DHT22;50669;50.982;11.022;2023-07-13T14:29:47;28.40;76.90
28837;DHT22;50669;50.982;11.022;2023-07-13T14:32:13;28.50;76.80
28837;DHT22;50669;50.982;11.022;2023-07-13T14:34:41;28.50;76.60
28837;DHT22;50669;50.982;11.022;2023-07-13T14:37:13;28.50;76.60
28837;DHT22;50669;50.982;11.022;2023-07-13T14:39:52;28.50;76.50
28837;DHT22;50669;50.982;11.022;2023-07-13T14:42:17;28.50;76.60
28837;DHT22;50669;50.982;11.022;2023-07-13T14:44:43;28.50;76.60
28837;DHT22;50669;50.982;11.022;2023-07-13T14:47:11;28.50;76.60
28837;DHT22;50669;50.982;11.022;2023-07-13T14:49:42;28.50;77.40
28837;DHT22;50669;50.982;11.022;2023-07-13T14:52:15;28.50;76.60
28837;DHT22;50669;50.982;11.022;2023-07-13T14:54:42;28.60;76.50
28837;DHT22;50669;50.982;11.022;2023-07-13T14:57:14;28.60;76.30
28837;DHT22;50669;50.982;11.022;2023-07-13T14:59:40;28.70;76.30
28837;DHT22;50669;50.982;11.022;2023-07-13T15:02:30;28.80;76.10
28837;DHT22;50669;50.982;11.022;2023-07-13T15:04:57;28.90;76.00
28837;DHT22;50669;50.982;11.022;2023-07-13T15:07:27;29.00;76.00
28837;DHT22;50669;50.982;11.022;2023-07-13T15:09:53;29.00;75.80
28837;DHT22;50669;50.982;11.022;2023-07-13T15:12:21;29.00;75.80
28837;DHT22;50669;50.982;11.022;2023-07-13T15:14:49;29.00;75.80
28837;DHT22;50669;50.982;11.022;2023-07-13T15:17:33;29.10;75.80
28837;DHT22;50669;50.982;11.022;2023-07-13T15:20:06;29.00;75.80
28837;DHT22;50669;50.982;11.022;2023-07-13T15:22:37;29.00;75.80
28837;DHT22;50669;50.982;11.022;2023-07-13T15:25:02;28.90;75.90
28837;DHT22;50669;50.982;11.022;2023-07-13T15:27:37;28.90;76.10
28837;DHT22;50669;50.982;11.022;2023-07-13T15:30:03;28.80;76.20
28837;DHT22;50669;50.982;11.022;2023-07-13T15:32:29;28.80;76.20
28837;DHT22;50669;50.982;11.022;2023-07-13T15:34:57;28.80;76.40
28837;DHT22;50669;50.982;11.022;2023-07-13T15:37:26;28.70;76.30
28837;DHT22;50669;50.982;11.022;2023-07-13T15:39:51;28.70;76.40
28837;DHT22;50669;50.982;11.022;2023-07-13T15:42:22;28.70;76.50
28837;DHT22;50669;50.982;11.022;2023-07-13T15:44:48;28.70;76.50
28837;DHT22;50669;50.982;11.022;2023-07-13T15:47:16;28.70;76.60
28837;DHT22;50669;50.982;11.022;2023-07-13T15:49:43;28.60;76.60
28837;DHT22;50669;50.982;11.022;2023-07-13T15:52:21;28.60;76.50
28837;DHT22;50669;50.982;11.022;2023-07-13T15:54:49;28.60;76.60
28837;DHT22;50669;50.982;11.022;2023-07-13T15:57:16;28.60;76.70
28837;DHT22;50669;50.982;11.022;2023-07-13T15:59:42;28.60;76.60
28837;DHT22;50669;50.982;11.022;2023-07-13T16:02:19;28.50;76.60
28837;DHT22;50669;50.982;11.022;2023-07-13T16:04:46;28.60;76.60